sensor_id;sensor_type;location;lat;lon;timestamp;pressure;altitude;pressure_sealevel;temperature;humidity
54648;BME280;40543;53.584;9.858;2023-06-10T00:02:10;118145.84;;;-144.59;100.00
54648;BME280;40543;53.584;9.858;2023-06-10T00:04:36;118145.84;;;-144.59;100.00
54648;BME280;40543;53.584;9.858;2023-06-10T00:07:03;118145.84;;;-144.59;100.00
54648;BME280;40543;53.584;9.858;2023-06-10T00:09:29;118145.84;;;-144.59;100.00
54648;BME280;40543;53.584;9.858;2023-06-10T00:11:54;118145.84;;;-144.59;100.00
54648;BME280;40543;53.584;9.858;2023-06-10T00:14:20;118145.84;;;-144.59;100.00
54648;BME280;40543;53.584;9.858;2023-06-10T00:16:45;118145.84;;;-144.59;100.00
54648;BME280;40543;53.584;9.858;2023-06-10T00:19:11;118145.84;;;-144.59;100.00
54648;BME280;40543;53.584;9.858;2023-06-10T00:21:39;118145.84;;;-144.59;100.00
54648;BME280;40543;53.584;9.858;2023-06-10T00:24:05;118145.84;;;-144.59;100.00
54648;BME280;40543;53.584;9.858;2023-06-10T00:26:32;118145.84;;;-144.59;100.00
54648;BME280;40543;53.584;9.858;2023-06-10T00:28:57;118145.84;;;-144.59;100.00
54648;BME280;40543;53.584;9.858;2023-06-10T00:31:23;118145.84;;;-144.59;100.00
54648;BME280;40543;53.584;9.858;2023-06-10T00:33:48;118145.84;;;-144.59;100.00
54648;BME280;40543;53.584;9.858;2023-06-10T00:36:13;118145.84;;;-144.59;100.00
54648;BME280;40543;53.584;9.858;2023-06-10T00:38:39;118145.84;;;-144.59;100.00
54648;BME280;40543;53.584;9.858;2023-06-10T00:41:06;118145.84;;;-144.59;100.00
54648;BME280;40543;53.584;9.858;2023-06-10T00:43:31;118145.84;;;-144.59;100.00
54648;BME280;40543;53.584;9.858;2023-06-10T00:45:56;118145.84;;;-144.59;100.00
54648;BME280;40543;53.584;9.858;2023-06-10T00:48:22;118145.84;;;-144.59;100.00
54648;BME280;40543;53.584;9.858;2023-06-10T00:50:48;118145.84;;;-144.59;100.00
54648;BME280;40543;53.584;9.858;2023-06-10T00:53:13;118145.84;;;-144.59;100.00
54648;BME280;40543;53.584;9.858;2023-06-10T00:55:40;118145.84;;;-144.59;100.00
54648;BME280;40543;53.584;9.858;2023-06-10T00:58:06;118145.84;;;-144.59;100.00
54648;BME280;40543;53.584;9.858;2023-06-10T01:00:32;118145.84;;;-144.59;100.00
54648;BME280;40543;53.584;9.858;2023-06-10T01:02:57;118145.84;;;-144.59;100.00
54648;BME280;40543;53.584;9.858;2023-06-10T01:05:24;118145.84;;;-144.59;100.00
54648;BME280;40543;53.584;9.858;2023-06-10T01:07:56;118145.84;;;-144.59;100.00
54648;BME280;40543;53.584;9.858;2023-06-10T01:10:55;118145.84;;;-144.59;100.00
54648;BME280;40543;53.584;9.858;2023-06-10T01:13:23;118145.84;;;-144.59;100.00
54648;BME280;40543;53.584;9.858;2023-06-10T01:15:54;118145.84;;;-144.59;100.00
54648;BME280;40543;53.584;9.858;2023-06-10T01:18:19;118145.84;;;-144.59;100.00
54648;BME280;40543;53.584;9.858;2023-06-10T01:20:47;118145.84;;;-144.59;100.00
54648;BME280;40543;53.584;9.858;2023-06-10T01:23:14;118145.84;;;-144.59;100.00
54648;BME280;40543;53.584;9.858;2023-06-10T01:25:41;118145.84;;;-144.59;100.00
54648;BME280;40543;53.584;9.858;2023-06-10T01:31:06;118145.84;;;-144.59;100.00
54648;BME280;40543;53.584;9.858;2023-06-10T01:33:36;118145.84;;;-144.59;100.00
54648;BME280;40543;53.584;9.858;2023-06-10T01:36:04;118145.84;;;-144.59;100.00
54648;BME280;40543;53.584;9.858;2023-06-10T01:38:33;118145.84;;;-144.59;100.00
54648;BME280;40543;53.584;9.858;2023-06-10T01:40:59;118145.84;;;-144.59;100.00
54648;BME280;40543;53.584;9.858;2023-06-10T01:43:25;118145.84;;;-144.59;100.00
54648;BME280;40543;53.584;9.858;2023-06-10T01:45:51;118145.84;;;-144.59;100.00
54648;BME280;40543;53.584;9.858;2023-06-10T01:48:16;118145.84;;;-144.59;100.00
54648;BME280;40543;53.584;9.858;2023-06-10T01:50:42;118145.84;;;-144.59;100.00
54648;BME280;40543;53.584;9.858;2023-06-10T01:53:09;118145.84;;;-144.59;100.00
54648;BME280;40543;53.584;9.858;2023-06-10T01:55:34;118145.84;;;-144.59;100.00
54648;BME280;40543;53.584;9.858;2023-06-10T01:57:59;118145.84;;;-144.59;100.00
54648;BME280;40543;53.584;9.858;2023-06-10T02:00:25;118145.84;;;-144.59;100.00
54648;BME280;40543;53.584;9.858;2023-06-10T02:02:50;118145.84;;;-144.59;100.00
54648;BME280;40543;53.584;9.858;2023-06-10T02:05:15;118145.84;;;-144.59;100.00
54648;BME280;40543;53.584;9.858;2023-06-10T02:07:41;118145.84;;;-144.59;100.00
54648;BME280;40543;53.584;9.858;2023-06-10T02:10:07;118145.84;;;-144.59;100.00
54648;BME280;40543;53.584;9.858;2023-06-10T02:12:32;118145.84;;;-144.59;100.00
54648;BME280;40543;53.584;9.858;2023-06-10T02:14:57;118145.84;;;-144.59;100.00
54648;BME280;40543;53.584;9.858;2023-06-10T02:17:23;118145.84;;;-144.59;100.00
54648;BME280;40543;53.584;9.858;2023-06-10T02:19:49;118145.84;;;-144.59;100.00
54648;BME280;40543;53.584;9.858;2023-06-10T02:22:20;118145.84;;;-144.59;100.00
54648;BME280;40543;53.584;9.858;2023-06-10T02:24:45;118145.84;;;-144.59;100.00
54648;BME280;40543;53.584;9.858;2023-06-10T02:27:11;118145.84;;;-144.59;100.00
54648;BME280;40543;53.584;9.858;2023-06-10T02:29:36;118145.84;;;-144.59;100.00
54648;BME280;40543;53.584;9.858;2023-06-10T02:32:02;118145.84;;;-144.59;100.00
54648;BME280;40543;53.584;9.858;2023-06-10T02:34:28;118145.84;;;-144.59;100.00
54648;BME280;40543;53.584;9.858;2023-06-10T02:36:54;118145.84;;;-144.59;100.00
54648;BME280;40543;53.584;9.858;2023-06-10T02:39:21;118145.84;;;-144.59;100.00
54648;BME280;40543;53.584;9.858;2023-06-10T02:41:47;118145.84;;;-144.59;100.00
54648;BME280;40543;53.584;9.858;2023-06-10T02:44:12;118145.84;;;-144.59;100.00
54648;BME280;40543;53.584;9.858;2023-06-10T02:46:38;118145.84;;;-144.59;100.00
54648;BME280;40543;53.584;9.858;2023-06-10T02:49:03;118145.84;;;-144.59;100.00
54648;BME280;40543;53.584;9.858;2023-06-10T02:51:28;118145.84;;;-144.59;100.00
54648;BME280;40543;53.584;9.858;2023-06-10T02:53:54;118145.84;;;-144.59;100.00
54648;BME280;40543;53.584;9.858;2023-06-10T02:56:19;118145.84;;;-144.59;100.00
54648;BME280;40543;53.584;9.858;2023-06-10T02:58:45;118145.84;;;-144.59;100.00
54648;BME280;40543;53.584;9.858;2023-06-10T03:01:12;118145.84;;;-144.59;100.00
54648;BME280;40543;53.584;9.858;2023-06-10T03:03:37;118145.84;;;-144.59;100.00
54648;BME280;40543;53.584;9.858;2023-06-10T03:06:06;118145.84;;;-144.59;100.00
54648;BME280;40543;53.584;9.858;2023-06-10T03:08:31;118145.84;;;-144.59;100.00
54648;BME280;40543;53.584;9.858;2023-06-10T03:10:57;118145.84;;;-144.59;100.00
54648;BME280;40543;53.584;9.858;2023-06-10T03:13:23;118145.84;;;-144.59;100.00
54648;BME280;40543;53.584;9.858;2023-06-10T03:15:49;118145.84;;;-144.59;100.00
54648;BME280;40543;53.584;9.858;2023-06-10T03:18:14;118145.84;;;-144.59;100.00
54648;BME280;40543;53.584;9.858;2023-06-10T03:20:39;118145.84;;;-144.59;100.00
54648;BME280;40543;53.584;9.858;2023-06-10T03:23:05;118145.84;;;-144.59;100.00
54648;BME280;40543;53.584;9.858;2023-06-10T03:25:33;118145.84;;;-144.59;100.00
54648;BME280;40543;53.584;9.858;2023-06-10T03:27:58;118145.84;;;-144.59;100.00
54648;BME280;40543;53.584;9.858;2023-06-10T03:30:24;118145.84;;;-144.59;100.00
54648;BME280;40543;53.584;9.858;2023-06-10T03:32:49;118145.84;;;-144.59;100.00
54648;BME280;40543;53.584;9.858;2023-06-10T03:35:14;118145.84;;;-144.59;100.00
54648;BME280;40543;53.584;9.858;2023-06-10T03:37:40;118145.84;;;-144.59;100.00
54648;BME280;40543;53.584;9.858;2023-06-10T03:40:07;118145.84;;;-144.59;100.00
54648;BME280;40543;53.584;9.858;2023-06-10T03:42:33;118145.84;;;-144.59;100.00
54648;BME280;40543;53.584;9.858;2023-06-10T03:44:59;118145.84;;;-144.59;100.00
54648;BME280;40543;53.584;9.858;2023-06-10T03:47:24;118145.84;;;-144.59;100.00
54648;BME280;40543;53.584;9.858;2023-06-10T03:49:50;118145.84;;;-144.59;100.00
54648;BME280;40543;53.584;9.858;2023-06-10T03:52:15;118145.84;;;-144.59;100.00
54648;BME280;40543;53.584;9.858;2023-06-10T03:54:40;118145.84;;;-144.59;100.00
54648;BME280;40543;53.584;9.858;2023-06-10T03:57:05;118145.84;;;-144.59;100.00
54648;BME280;40543;53.584;9.858;2023-06-10T03:59:31;118145.84;;;-144.59;100.00
54648;BME280;40543;53.584;9.858;2023-06-10T04:01:56;118145.84;;;-144.59;100.00
54648;BME280;40543;53.584;9.858;2023-06-10T04:04:23;118145.84;;;-144.59;100.00
54648;BME280;40543;53.584;9.858;2023-06-10T04:06:48;118145.84;;;-144.59;100.00
54648;BME280;40543;53.584;9.858;2023-06-10T04:09:14;118145.84;;;-144.59;100.00
54648;BME280;40543;53.584;9.858;2023-06-10T04:11:41;118145.84;;;-144.59;100.00
54648;BME280;40543;53.584;9.858;2023-06-10T04:14:07;118145.84;;;-144.59;100.00
54648;BME280;40543;53.584;9.858;2023-06-10T04:16:33;118145.84;;;-144.59;100.00
54648;BME280;40543;53.584;9.858;2023-06-10T04:18:59;118145.84;;;-144.59;100.00
54648;BME280;40543;53.584;9.858;2023-06-10T04:21:25;118145.84;;;-144.59;100.00
54648;BME280;40543;53.584;9.858;2023-06-10T04:23:51;118145.84;;;-144.59;100.00
54648;BME280;40543;53.584;9.858;2023-06-10T04:26:16;118145.84;;;-144.59;100.00
54648;BME280;40543;53.584;9.858;2023-06-10T04:28:43;118145.84;;;-144.59;100.00
54648;BME280;40543;53.584;9.858;2023-06-10T04:31:08;118145.84;;;-144.59;100.00
54648;BME280;40543;53.584;9.858;2023-06-10T04:33:34;118145.84;;;-144.59;100.00
54648;BME280;40543;53.584;9.858;2023-06-10T04:35:59;118145.84;;;-144.59;100.00
54648;BME280;40543;53.584;9.858;2023-06-10T04:38:24;118145.84;;;-144.59;100.00
54648;BME280;40543;53.584;9.858;2023-06-10T04:40:50;118145.84;;;-144.59;100.00
54648;BME280;40543;53.584;9.858;2023-06-10T04:43:15;118145.84;;;-144.59;100.00
54648;BME280;40543;53.584;9.858;2023-06-10T04:45:41;118145.84;;;-144.59;100.00
54648;BME280;40543;53.584;9.858;2023-06-10T04:48:10;118145.84;;;-144.59;100.00
54648;BME280;40543;53.584;9.858;2023-06-10T04:50:36;118145.84;;;-144.59;100.00
54648;BME280;40543;53.584;9.858;2023-06-10T04:53:01;118145.84;;;-144.59;100.00
54648;BME280;40543;53.584;9.858;2023-06-10T04:55:27;118145.84;;;-144.59;100.00
54648;BME280;40543;53.584;9.858;2023-06-10T04:57:52;118145.84;;;-144.59;100.00
54648;BME280;40543;53.584;9.858;2023-06-10T05:00:17;118145.84;;;-144.59;100.00
54648;BME280;40543;53.584;9.858;2023-06-10T05:02:43;118145.84;;;-144.59;100.00
54648;BME280;40543;53.584;9.858;2023-06-10T05:05:10;118145.84;;;-144.59;100.00
54648;BME280;40543;53.584;9.858;2023-06-10T05:07:36;118145.84;;;-144.59;100.00
54648;BME280;40543;53.584;9.858;2023-06-10T05:10:02;118145.84;;;-144.59;100.00
54648;BME280;40543;53.584;9.858;2023-06-10T05:12:28;118145.84;;;-144.59;100.00
54648;BME280;40543;53.584;9.858;2023-06-10T05:14:53;118145.84;;;-144.59;100.00
54648;BME280;40543;53.584;9.858;2023-06-10T05:17:18;118145.84;;;-144.59;100.00
54648;BME280;40543;53.584;9.858;2023-06-10T05:19:44;118145.84;;;-144.59;100.00
54648;BME280;40543;53.584;9.858;2023-06-10T05:22:09;118145.84;;;-144.59;100.00
54648;BME280;40543;53.584;9.858;2023-06-10T05:24:34;118145.84;;;-144.59;100.00
54648;BME280;40543;53.584;9.858;2023-06-10T05:27:00;118145.84;;;-144.59;100.00
54648;BME280;40543;53.584;9.858;2023-06-10T05:29:25;118145.84;;;-144.59;100.00
54648;BME280;40543;53.584;9.858;2023-06-10T05:31:51;118145.84;;;-144.59;100.00
54648;BME280;40543;53.584;9.858;2023-06-10T05:34:16;118145.84;;;-144.59;100.00
54648;BME280;40543;53.584;9.858;2023-06-10T05:36:42;118145.84;;;-144.59;100.00
54648;BME280;40543;53.584;9.858;2023-06-10T05:39:08;118145.84;;;-144.59;100.00
54648;BME280;40543;53.584;9.858;2023-06-10T05:41:34;118145.84;;;-144.59;100.00
54648;BME280;40543;53.584;9.858;2023-06-10T05:43:59;118145.84;;;-144.59;100.00
54648;BME280;40543;53.584;9.858;2023-06-10T05:46:24;118145.84;;;-144.59;100.00
54648;BME280;40543;53.584;9.858;2023-06-10T05:48:50;118145.84;;;-144.59;100.00
54648;BME280;40543;53.584;9.858;2023-06-10T05:51:15;118145.84;;;-144.59;100.00
54648;BME280;40543;53.584;9.858;2023-06-10T05:53:40;118145.84;;;-144.59;100.00
54648;BME280;40543;53.584;9.858;2023-06-10T05:56:06;118145.84;;;-144.59;100.00
54648;BME280;40543;53.584;9.858;2023-06-10T05:58:31;118145.84;;;-144.59;100.00
54648;BME280;40543;53.584;9.858;2023-06-10T06:00:57;118145.84;;;-144.59;100.00
54648;BME280;40543;53.584;9.858;2023-06-10T06:03:22;118145.84;;;-144.59;100.00
54648;BME280;40543;53.584;9.858;2023-06-10T06:05:47;118145.84;;;-144.59;100.00
54648;BME280;40543;53.584;9.858;2023-06-10T06:08:13;118145.84;;;-144.59;100.00
54648;BME280;40543;53.584;9.858;2023-06-10T06:10:46;118145.84;;;-144.59;100.00
54648;BME280;40543;53.584;9.858;2023-06-10T06:13:13;118145.84;;;-144.59;100.00
54648;BME280;40543;53.584;9.858;2023-06-10T06:15:38;118145.84;;;-144.59;100.00
54648;BME280;40543;53.584;9.858;2023-06-10T06:18:04;118143.81;;;-144.59;100.00
54648;BME280;40543;53.584;9.858;2023-06-10T06:20:29;118143.81;;;-144.59;100.00
54648;BME280;40543;53.584;9.858;2023-06-10T06:22:54;116566.72;;;-144.59;100.00
54648;BME280;40543;53.584;9.858;2023-06-10T06:25:20;116566.72;;;-144.59;100.00
54648;BME280;40543;53.584;9.858;2023-06-10T06:27:45;115778.44;;;-144.59;100.00
54648;BME280;40543;53.584;9.858;2023-06-10T06:30:11;115778.44;;;-144.59;100.00
54648;BME280;40543;53.584;9.858;2023-06-10T06:32:37;113939.63;;;-144.59;100.00
54648;BME280;40543;53.584;9.858;2023-06-10T06:35:02;112101.69;;;-144.59;100.00
54648;BME280;40543;53.584;9.858;2023-06-10T06:37:28;111314.22;;;-144.59;100.00
54648;BME280;40543;53.584;9.858;2023-06-10T06:39:53;109739.81;;;-144.59;100.00
54648;BME280;40543;53.584;9.858;2023-06-10T06:42:19;102924.31;;;-144.59;98.95
54648;BME280;40543;53.584;9.858;2023-06-10T06:44:46;102400.50;;;-144.59;98.48
54648;BME280;40543;53.584;9.858;2023-06-10T06:47:12;97950.97;;;-144.59;95.37
54648;BME280;40543;53.584;9.858;2023-06-10T06:49:38;99259.16;;;-144.59;96.46
54648;BME280;40543;53.584;9.858;2023-06-10T06:52:03;95858.75;;;-144.59;94.42
54648;BME280;40543;53.584;9.858;2023-06-10T06:54:29;101614.94;;;-144.59;97.94
54648;BME280;40543;53.584;9.858;2023-06-10T06:56:54;102138.63;;;-144.59;97.78
54648;BME280;40543;53.584;9.858;2023-06-10T06:59:19;97950.97;;;-144.59;94.74
54648;BME280;40543;53.584;9.858;2023-06-10T07:01:46;95074.44;;;-144.59;92.94
54648;BME280;40543;53.584;9.858;2023-06-10T07:04:11;88283.56;;;-144.59;90.21
54648;BME280;40543;53.584;9.858;2023-06-10T07:06:37;87239.81;;;-144.59;89.95
54648;BME280;40543;53.584;9.858;2023-06-10T07:09:03;78899.66;;;-144.59;87.35
54648;BME280;40543;53.584;9.858;2023-06-10T07:11:29;80983.06;;;-144.59;87.26
54648;BME280;40543;53.584;9.858;2023-06-10T07:13:55;81504.09;;;-144.59;87.83
54648;BME280;40543;53.584;9.858;2023-06-10T07:16:20;76296.88;;;-144.59;85.51
54648;BME280;40543;53.584;9.858;2023-06-10T07:18:46;75776.53;;;-144.59;85.98
54648;BME280;40543;53.584;9.858;2023-06-10T07:21:11;72018.22;;;-144.59;84.68
54648;BME280;40543;53.584;9.858;2023-06-10T07:23:37;69273.81;;;-144.59;84.68
54648;BME280;40543;53.584;9.858;2023-06-10T07:26:02;62939.72;;;-144.59;81.83
54648;BME280;40543;53.584;9.858;2023-06-10T07:28:28;63995.38;;;-144.59;82.75
54648;BME280;40543;53.584;9.858;2023-06-10T07:30:53;62024.09;;;-144.59;81.72
54648;BME280;40543;53.584;9.858;2023-06-10T07:33:19;58634.88;;;-144.59;79.89
54648;BME280;40543;53.584;9.858;2023-06-10T07:35:44;57732.38;;;-144.59;79.22
54648;BME280;40543;53.584;9.858;2023-06-10T07:38:09;57839.59;;;-144.59;79.17
54648;BME280;40543;53.584;9.858;2023-06-10T07:40:35;57060.69;;;-144.59;77.77
54648;BME280;40543;53.584;9.858;2023-06-10T07:43:00;56237.44;;;-144.59;76.92
54648;BME280;40543;53.584;9.858;2023-06-10T07:45:26;55721.72;;;-144.59;76.06
54648;BME280;40543;53.584;9.858;2023-06-10T07:47:51;55475.00;;;-144.59;75.76
54648;BME280;40543;53.584;9.858;2023-06-10T07:50:16;56704.66;;;-144.59;77.48
54648;BME280;40543;53.584;9.858;2023-06-10T07:52:42;55741.94;;;-144.59;76.32
54648;BME280;40543;53.584;9.858;2023-06-10T07:55:07;55440.63;;;-144.59;75.45
54648;BME280;40543;53.584;9.858;2023-06-10T07:57:32;55028.13;;;-144.59;74.05
54648;BME280;40543;53.584;9.858;2023-06-10T08:00:02;54864.38;;;-144.59;73.54
54648;BME280;40543;53.584;9.858;2023-06-10T08:02:29;54637.94;;;-144.59;73.23
54648;BME280;40543;53.584;9.858;2023-06-10T08:04:55;54633.88;;;-144.59;72.83
54648;BME280;40543;53.584;9.858;2023-06-10T08:07:20;54257.88;;;-144.59;70.55
54648;BME280;40543;53.584;9.858;2023-06-10T08:09:47;54348.84;;;-144.59;71.38
54648;BME280;40543;53.584;9.858;2023-06-10T08:12:12;54443.84;;;-144.59;72.00
54648;BME280;40543;53.584;9.858;2023-06-10T08:14:38;54391.28;;;-144.59;71.71
54648;BME280;40543;53.584;9.858;2023-06-10T08:17:03;54079.97;;;-144.59;68.60
54648;BME280;40543;53.584;9.858;2023-06-10T08:19:31;54094.13;;;-144.59;68.27
54648;BME280;40543;53.584;9.858;2023-06-10T08:21:56;54110.28;;;-144.59;67.26
54648;BME280;40543;53.584;9.858;2023-06-10T08:24:21;54063.81;;;-144.59;67.02
54648;BME280;40543;53.584;9.858;2023-06-10T08:26:47;54027.41;;;-144.59;67.23
54648;BME280;40543;53.584;9.858;2023-06-10T08:29:12;54061.78;;;-144.59;68.66
54648;BME280;40543;53.584;9.858;2023-06-10T08:31:41;54162.84;;;-144.59;69.47
54648;BME280;40543;53.584;9.858;2023-06-10T08:34:06;54126.47;;;-144.59;68.17
54648;BME280;40543;53.584;9.858;2023-06-10T08:36:32;54061.78;;;-144.59;67.80
54648;BME280;40543;53.584;9.858;2023-06-10T08:38:57;54079.97;;;-144.59;67.59
54648;BME280;40543;53.584;9.858;2023-06-10T08:41:25;53999.13;;;-144.59;65.12
54648;BME280;40543;53.584;9.858;2023-06-10T08:44:09;53952.63;;;-144.59;64.53
54648;BME280;40543;53.584;9.858;2023-06-10T08:46:36;54005.19;;;-144.59;66.66
54648;BME280;40543;53.584;9.858;2023-06-10T08:49:03;54106.25;;;-144.59;67.92
54648;BME280;40543;53.584;9.858;2023-06-10T08:51:32;54029.44;;;-144.59;65.81
54648;BME280;40543;53.584;9.858;2023-06-10T08:54:03;54033.47;;;-144.59;65.55
54648;BME280;40543;53.584;9.858;2023-06-10T08:56:29;53997.09;;;-144.59;62.20
54648;BME280;40543;53.584;9.858;2023-06-10T08:58:56;54053.69;;;-144.59;65.28
54648;BME280;40543;53.584;9.858;2023-06-10T09:01:24;54013.25;;;-144.59;62.93
54648;BME280;40543;53.584;9.858;2023-06-10T09:03:51;53993.06;;;-144.59;61.68
54648;BME280;40543;53.584;9.858;2023-06-10T09:06:17;53997.09;;;-144.59;59.10
54648;BME280;40543;53.584;9.858;2023-06-10T09:08:43;53954.66;;;-144.59;61.92
54648;BME280;40543;53.584;9.858;2023-06-10T09:11:09;53984.97;;;-144.59;63.64
54648;BME280;40543;53.584;9.858;2023-06-10T09:13:34;54011.25;;;-144.59;62.65
54648;BME280;40543;53.584;9.858;2023-06-10T09:16:00;53964.75;;;-144.59;57.65
54648;BME280;40543;53.584;9.858;2023-06-10T09:18:27;53997.09;;;-144.59;55.91
54648;BME280;40543;53.584;9.858;2023-06-10T09:20:53;53906.13;;;-144.59;55.71
54648;BME280;40543;53.584;9.858;2023-06-10T09:23:18;53960.72;;;-144.59;56.15
54648;BME280;40543;53.584;9.858;2023-06-10T09:25:44;54017.31;;;-144.59;56.14
54648;BME280;40543;53.584;9.858;2023-06-10T09:28:14;53932.41;;;-144.59;56.11
54648;BME280;40543;53.584;9.858;2023-06-10T09:30:40;54013.25;;;-144.59;62.14
54648;BME280;40543;53.584;9.858;2023-06-10T09:33:15;54015.28;;;-144.59;58.96
54648;BME280;40543;53.584;9.858;2023-06-10T09:35:48;53987.00;;;-144.59;57.88
54648;BME280;40543;53.584;9.858;2023-06-10T09:38:19;54015.28;;;-144.59;60.54
54648;BME280;40543;53.584;9.858;2023-06-10T09:40:51;54019.34;;;-144.59;50.06
54648;BME280;40543;53.584;9.858;2023-06-10T09:43:17;54005.19;;;-144.59;51.63
54648;BME280;40543;53.584;9.858;2023-06-10T09:45:43;53976.88;;;-144.59;52.42
54648;BME280;40543;53.584;9.858;2023-06-10T09:48:11;53995.06;;;-144.59;48.64
54648;BME280;40543;53.584;9.858;2023-06-10T09:50:43;54059.75;;;-144.59;55.17
54648;BME280;40543;53.584;9.858;2023-06-10T09:53:09;53987.00;;;-144.59;48.73
54648;BME280;40543;53.584;9.858;2023-06-10T09:55:37;54009.22;;;-144.59;52.51
54648;BME280;40543;53.584;9.858;2023-06-10T09:58:03;54017.31;;;-144.59;51.18
54648;BME280;40543;53.584;9.858;2023-06-10T10:00:34;54043.59;;;-144.59;48.66
54648;BME280;40543;53.584;9.858;2023-06-10T10:02:59;54063.81;;;-144.59;49.96
54648;BME280;40543;53.584;9.858;2023-06-10T10:05:25;54005.19;;;-144.59;54.06
54648;BME280;40543;53.584;9.858;2023-06-10T10:07:51;54033.47;;;-144.59;51.90
54648;BME280;40543;53.584;9.858;2023-06-10T10:10:20;54075.94;;;-144.59;50.26
54648;BME280;40543;53.584;9.858;2023-06-10T10:12:46;54059.75;;;-144.59;46.28
54648;BME280;40543;53.584;9.858;2023-06-10T10:15:12;53946.56;;;-144.59;53.72
54648;BME280;40543;53.584;9.858;2023-06-10T10:17:40;54003.16;;;-144.59;53.25
54648;BME280;40543;53.584;9.858;2023-06-10T10:20:08;54041.56;;;-144.59;51.57
54648;BME280;40543;53.584;9.858;2023-06-10T10:22:39;54015.28;;;-144.59;49.00
54648;BME280;40543;53.584;9.858;2023-06-10T10:25:13;53982.94;;;-144.59;48.40
54648;BME280;40543;53.584;9.858;2023-06-10T10:27:57;54071.88;;;-144.59;49.42
54648;BME280;40543;53.584;9.858;2023-06-10T10:30:28;54142.63;;;-144.59;47.73
54648;BME280;40543;53.584;9.858;2023-06-10T10:32:57;54108.28;;;-144.59;45.30
54648;BME280;40543;53.584;9.858;2023-06-10T10:35:25;54156.78;;;-144.59;44.40
54648;BME280;40543;53.584;9.858;2023-06-10T10:37:54;54128.50;;;-144.59;45.07
54648;BME280;40543;53.584;9.858;2023-06-10T10:40:21;54110.28;;;-144.59;46.56
54648;BME280;40543;53.584;9.858;2023-06-10T10:42:48;54134.56;;;-144.59;41.91
54648;BME280;40543;53.584;9.858;2023-06-10T10:45:14;54104.22;;;-144.59;45.39
54648;BME280;40543;53.584;9.858;2023-06-10T10:47:41;54086.03;;;-144.59;44.45
54648;BME280;40543;53.584;9.858;2023-06-10T10:50:16;54177.00;;;-144.59;43.84
54648;BME280;40543;53.584;9.858;2023-06-10T10:52:59;54185.09;;;-144.59;44.27
54648;BME280;40543;53.584;9.858;2023-06-10T10:55:26;54172.97;;;-144.59;43.25
54648;BME280;40543;53.584;9.858;2023-06-10T10:58:06;54227.53;;;-144.59;40.50
54648;BME280;40543;53.584;9.858;2023-06-10T11:00:43;54231.59;;;-144.59;39.74
54648;BME280;40543;53.584;9.858;2023-06-10T11:03:13;54233.59;;;-144.59;41.61
54648;BME280;40543;53.584;9.858;2023-06-10T11:05:43;54223.50;;;-144.59;40.69
54648;BME280;40543;53.584;9.858;2023-06-10T11:08:11;54276.06;;;-144.59;37.30
54648;BME280;40543;53.584;9.858;2023-06-10T11:10:39;54170.94;;;-144.59;41.79
54648;BME280;40543;53.584;9.858;2023-06-10T11:13:14;54181.03;;;-144.59;43.04
54648;BME280;40543;53.584;9.858;2023-06-10T11:15:48;54217.44;;;-144.59;41.29
54648;BME280;40543;53.584;9.858;2023-06-10T11:18:25;54261.91;;;-144.59;40.64
54648;BME280;40543;53.584;9.858;2023-06-10T11:20:53;54237.66;;;-144.59;40.39
54648;BME280;40543;53.584;9.858;2023-06-10T11:23:41;54290.22;;;-144.59;40.96
54648;BME280;40543;53.584;9.858;2023-06-10T11:28:36;54284.16;;;-144.59;39.98
54648;BME280;40543;53.584;9.858;2023-06-10T11:31:01;54298.28;;;-144.59;40.23
54648;BME280;40543;53.584;9.858;2023-06-10T11:33:26;54322.56;;;-144.59;39.26
54648;BME280;40543;53.584;9.858;2023-06-10T11:35:53;54235.63;;;-144.59;41.15
54648;BME280;40543;53.584;9.858;2023-06-10T11:38:19;54259.88;;;-144.59;40.23
54648;BME280;40543;53.584;9.858;2023-06-10T11:40:50;54215.41;;;-144.59;40.65
54648;BME280;40543;53.584;9.858;2023-06-10T11:43:19;54257.88;;;-144.59;40.13
54648;BME280;40543;53.584;9.858;2023-06-10T11:45:45;54261.91;;;-144.59;41.52
54648;BME280;40543;53.584;9.858;2023-06-10T11:48:12;54314.47;;;-144.59;38.94
54648;BME280;40543;53.584;9.858;2023-06-10T11:50:37;54377.13;;;-144.59;39.11
54648;BME280;40543;53.584;9.858;2023-06-10T11:53:03;54310.41;;;-144.59;37.74
54648;BME280;40543;53.584;9.858;2023-06-10T11:55:45;54369.03;;;-144.59;36.44
54648;BME280;40543;53.584;9.858;2023-06-10T11:58:19;54415.53;;;-144.59;36.58
54648;BME280;40543;53.584;9.858;2023-06-10T12:00:52;54383.19;;;-144.59;37.55
54648;BME280;40543;53.584;9.858;2023-06-10T12:03:26;54318.50;;;-144.59;37.19
54648;BME280;40543;53.584;9.858;2023-06-10T12:06:01;54411.50;;;-144.59;36.24
54648;BME280;40543;53.584;9.858;2023-06-10T12:08:27;54435.75;;;-144.59;37.08
54648;BME280;40543;53.584;9.858;2023-06-10T12:10:54;54417.56;;;-144.59;36.28
54648;BME280;40543;53.584;9.858;2023-06-10T12:13:20;54462.03;;;-144.59;36.15
54648;BME280;40543;53.584;9.858;2023-06-10T12:15:46;54460.03;;;-144.59;35.74
54648;BME280;40543;53.584;9.858;2023-06-10T12:18:21;54470.13;;;-144.59;35.64
54648;BME280;40543;53.584;9.858;2023-06-10T12:20:47;54340.75;;;-144.59;38.05
54648;BME280;40543;53.584;9.858;2023-06-10T12:23:14;54466.09;;;-144.59;36.23
54648;BME280;40543;53.584;9.858;2023-06-10T12:25:52;54447.88;;;-144.59;34.95
54648;BME280;40543;53.584;9.858;2023-06-10T12:28:24;54512.59;;;-144.59;34.87
54648;BME280;40543;53.584;9.858;2023-06-10T12:30:50;54526.72;;;-144.59;35.79
54648;BME280;40543;53.584;9.858;2023-06-10T12:33:20;54575.25;;;-144.59;34.17
54648;BME280;40543;53.584;9.858;2023-06-10T12:35:50;54522.69;;;-144.59;34.52